Canals, Argentina
Current Conditions -  °F | °C
As of 8:00 AM on Saturday 01 Nov 2014 (Local Time) from SAOC Reporting Station
Drizzle Drizzle  
Wind Chill: 42°   Ceiling: 400
Heat Index: 48°   Visibility: 0.93mi
Dew Point: 48°   Wind: 16mph
Humidity: 100%   Direction: 90°E
Pressure: 30.21"   Gusts: NA
Location:  33.55°S, 62.88°W
Report Text: SAOC 011100Z 09014KT 1500 DZ BR OVC00409/09 Q1023
Loading
Personal Weather Stations






























Interactive Weather Map
Tropical Storm Tracking
New forecast layout! Learn more

10-Day Weather Forecast

Advertisements
Track Severe Weather on mobile